Terminal Aerodrome Forecast
Issued by NWS

Home | Current Version | Previous Version | Text Only | Print | Product List | Glossary On
Versions: 1 2 3 4 5 6 7 8 9 10 11 12
315
FTUS44 KBMX 110520
TAFANB
TAF
KANB 110520Z 1106/1206 00000KT P6SM SKC
     FM111500 13005KT P6SM SCT015 OVC025
     FM120300 15010KT P6SM SCT007 OVC015=

USA.gov is the U.S. government's official web portal to all federal, state and local government web resources and services.